createdAt,value
2018-08-10T00:00:59.795Z,19.50
2018-08-10T00:01:59.786Z,19.48
2018-08-10T00:02:59.764Z,19.43
2018-08-10T00:03:59.744Z,19.39
2018-08-10T00:04:59.735Z,19.57
2018-08-10T00:05:59.723Z,19.54
2018-08-10T00:06:59.712Z,19.42
2018-08-10T00:07:59.689Z,19.43
2018-08-10T00:08:59.737Z,19.33
2018-08-10T00:09:59.675Z,19.28
2018-08-10T00:10:59.664Z,19.24
2018-08-10T00:11:59.642Z,19.25
2018-08-10T00:12:59.642Z,19.24
2018-08-10T00:13:59.620Z,19.32
2018-08-10T00:14:59.624Z,19.31
2018-08-10T00:15:59.593Z,19.31
2018-08-10T00:16:59.613Z,19.31
2018-08-10T00:17:59.569Z,19.35
2018-08-10T00:18:59.546Z,19.28
2018-08-10T00:19:59.540Z,19.29
2018-08-10T00:20:59.527Z,19.28
2018-08-10T00:21:59.511Z,19.21
2018-08-10T00:22:59.504Z,19.18
2018-08-10T00:23:59.501Z,19.18
2018-08-10T00:24:59.469Z,19.25
2018-08-10T00:25:59.465Z,19.31
2018-08-10T00:26:59.441Z,19.20
2018-08-10T00:27:59.447Z,19.13
2018-08-10T00:28:59.445Z,19.18
2018-08-10T00:29:59.409Z,19.11
2018-08-10T00:30:59.387Z,19.08
2018-08-10T00:31:59.373Z,19.01
2018-08-10T00:32:59.366Z,19.08
2018-08-10T00:34:02.094Z,18.97
2018-08-10T00:34:59.332Z,19.08
2018-08-10T00:35:59.310Z,19.13
2018-08-10T00:36:59.297Z,19.11
2018-08-10T00:37:59.295Z,19.10
2018-08-10T00:38:59.278Z,19.14
2018-08-10T00:39:59.268Z,19.18
2018-08-10T00:40:59.246Z,19.20
2018-08-10T00:41:59.233Z,19.14
2018-08-10T00:42:59.233Z,19.06
2018-08-10T00:43:59.208Z,19.08
2018-08-10T00:44:59.195Z,19.02
2018-08-10T00:45:59.175Z,19.08
2018-08-10T00:46:59.175Z,19.05
2018-08-10T00:47:59.158Z,18.97
2018-08-10T00:48:59.133Z,18.90
2018-08-10T00:49:59.122Z,18.79
2018-08-10T00:50:59.107Z,18.67
2018-08-10T00:51:59.107Z,18.67
2018-08-10T00:52:59.086Z,18.70
2018-08-10T00:53:59.068Z,18.73
2018-08-10T00:54:59.059Z,18.73
2018-08-10T00:55:59.043Z,18.67
2018-08-10T00:56:59.023Z,18.79
2018-08-10T00:57:59.014Z,18.72
2018-08-10T00:58:59.001Z,18.80
2018-08-10T00:59:58.983Z,18.70
2018-08-10T01:00:58.973Z,18.72
2018-08-10T01:01:58.960Z,18.68
2018-08-10T01:02:58.948Z,18.54
2018-08-10T01:03:58.936Z,18.57
2018-08-10T01:04:58.919Z,18.58
2018-08-10T01:05:58.903Z,18.55
2018-08-10T01:06:58.890Z,18.40
2018-08-10T01:07:58.880Z,18.40
2018-08-10T01:08:58.867Z,18.46
2018-08-10T01:09:58.851Z,18.40
2018-08-10T01:10:58.846Z,18.33
2018-08-10T01:11:58.826Z,18.28
2018-08-10T01:12:58.855Z,18.19
2018-08-10T01:13:58.800Z,18.29
2018-08-10T01:14:58.783Z,18.19
2018-08-10T01:15:58.771Z,18.28
2018-08-10T01:16:58.754Z,18.15
2018-08-10T01:17:58.739Z,18.27
2018-08-10T01:18:58.730Z,18.13
2018-08-10T01:19:58.713Z,18.15
2018-08-10T01:20:58.691Z,18.04
2018-08-10T01:21:58.684Z,17.99
2018-08-10T01:22:58.663Z,17.91
2018-08-10T01:23:58.665Z,17.91
2018-08-10T01:24:58.636Z,17.73
2018-08-10T01:25:58.630Z,17.63
2018-08-10T01:26:58.611Z,17.71
2018-08-10T01:27:58.594Z,17.69
2018-08-10T01:28:58.652Z,17.78
2018-08-10T01:29:58.567Z,17.67
2018-08-10T01:30:58.548Z,17.69
2018-08-10T01:31:58.538Z,17.67
2018-08-10T01:32:58.522Z,17.54
2018-08-10T01:33:58.519Z,17.59
2018-08-10T01:34:58.505Z,17.51
2018-08-10T01:35:58.488Z,17.62
2018-08-10T01:36:58.471Z,17.53
2018-08-10T01:37:58.452Z,17.46
2018-08-10T01:38:58.440Z,17.29
2018-08-10T01:39:58.423Z,17.30
2018-08-10T01:40:58.405Z,17.35
2018-08-10T01:41:58.398Z,17.29
2018-08-10T01:42:58.385Z,17.29
2018-08-10T01:43:58.375Z,17.26
2018-08-10T01:44:58.352Z,17.17
2018-08-10T01:45:58.343Z,17.11
2018-08-10T01:46:58.320Z,17.15
2018-08-10T01:47:58.304Z,17.14
2018-08-10T01:48:58.285Z,17.15
2018-08-10T01:49:58.282Z,17.17
2018-08-10T01:50:58.259Z,17.15
2018-08-10T01:51:58.251Z,17.13
2018-08-10T01:52:58.234Z,17.13
2018-08-10T01:53:58.211Z,17.15
2018-08-10T01:54:58.204Z,17.13
2018-08-10T01:55:58.185Z,17.08
2018-08-10T01:56:58.175Z,16.98
2018-08-10T01:57:58.160Z,17.03
2018-08-10T01:58:58.137Z,16.93
2018-08-10T01:59:58.134Z,16.92
2018-08-10T02:00:58.111Z,16.92
2018-08-10T02:01:58.092Z,16.85
2018-08-10T02:02:58.082Z,16.83
2018-08-10T02:03:58.067Z,16.98
2018-08-10T02:04:58.078Z,16.99
2018-08-10T02:05:58.044Z,17.00
2018-08-10T02:06:58.025Z,16.89
2018-08-10T02:07:58.013Z,16.86
2018-08-10T02:08:58.002Z,16.81
2018-08-10T02:09:57.979Z,16.74
2018-08-10T02:10:57.967Z,16.78
2018-08-10T02:11:57.961Z,16.74
2018-08-10T02:12:57.932Z,16.68
2018-08-10T02:13:57.942Z,16.75
2018-08-10T02:14:57.903Z,16.71
2018-08-10T02:15:57.887Z,16.70
2018-08-10T02:16:57.868Z,16.68
2018-08-10T02:17:57.856Z,16.67
2018-08-10T02:18:57.843Z,16.58
2018-08-10T02:19:57.829Z,16.55
2018-08-10T02:20:57.816Z,16.52
2018-08-10T02:21:57.795Z,16.52
2018-08-10T02:22:57.785Z,16.45
2018-08-10T02:23:57.773Z,16.45
2018-08-10T02:24:57.763Z,16.52
2018-08-10T02:25:57.765Z,16.50
2018-08-10T02:26:57.724Z,16.50
2018-08-10T02:27:57.701Z,16.48
2018-08-10T02:28:57.695Z,16.42
2018-08-10T02:29:57.698Z,16.45
2018-08-10T02:30:57.676Z,16.31
2018-08-10T02:31:57.644Z,16.41
2018-08-10T02:32:57.634Z,16.26
2018-08-10T02:33:57.615Z,16.30
2018-08-10T02:34:57.608Z,16.33
2018-08-10T02:35:57.578Z,16.22
2018-08-10T02:36:57.565Z,16.34
2018-08-10T02:37:57.569Z,16.33
2018-08-10T02:38:57.533Z,16.26
2018-08-10T02:39:57.520Z,16.25
2018-08-10T02:40:57.511Z,16.25
2018-08-10T02:41:57.489Z,16.23
2018-08-10T02:42:57.483Z,16.41
2018-08-10T02:43:57.463Z,16.44
2018-08-10T02:44:57.448Z,16.38
2018-08-10T02:45:57.434Z,16.48
2018-08-10T02:46:57.415Z,16.45
2018-08-10T02:47:57.392Z,16.38
2018-08-10T02:48:57.384Z,16.23
2018-08-10T02:49:57.371Z,16.38
2018-08-10T02:50:57.356Z,16.23
2018-08-10T02:51:57.365Z,16.34
2018-08-10T02:52:57.320Z,16.25
2018-08-10T02:53:57.306Z,16.30
2018-08-10T02:54:57.297Z,16.22
2018-08-10T02:55:57.290Z,16.20
2018-08-10T02:56:57.260Z,16.18
2018-08-10T02:57:57.240Z,16.18
2018-08-10T02:58:57.246Z,16.09
2018-08-10T02:59:57.220Z,15.88
2018-08-10T03:00:57.202Z,15.89
2018-08-10T03:01:57.183Z,15.79
2018-08-10T03:02:57.170Z,15.61
2018-08-10T03:03:57.158Z,15.49
2018-08-10T03:04:57.138Z,15.51
2018-08-10T03:05:57.121Z,15.64
2018-08-10T03:06:57.106Z,15.64
2018-08-10T03:07:57.092Z,15.66
2018-08-10T03:08:57.071Z,15.61
2018-08-10T03:09:57.061Z,15.61
2018-08-10T03:10:57.041Z,15.70
2018-08-10T03:11:57.029Z,15.74
2018-08-10T03:12:57.009Z,15.70
2018-08-10T03:13:56.993Z,15.63
2018-08-10T03:14:56.994Z,15.66
2018-08-10T03:15:56.965Z,15.74
2018-08-10T03:16:56.946Z,15.70
2018-08-10T03:17:56.940Z,15.67
2018-08-10T03:18:56.914Z,15.63
2018-08-10T03:19:56.901Z,15.57
2018-08-10T03:20:56.891Z,15.60
2018-08-10T03:21:56.888Z,15.59
2018-08-10T03:22:56.853Z,15.63
2018-08-10T03:23:56.833Z,15.70
2018-08-10T03:24:56.819Z,15.68
2018-08-10T03:25:56.808Z,15.74
2018-08-10T03:26:56.791Z,15.82
2018-08-10T03:27:56.780Z,15.82
2018-08-10T03:28:56.755Z,15.75
2018-08-10T03:29:56.746Z,15.66
2018-08-10T03:30:56.743Z,15.57
2018-08-10T03:31:56.720Z,15.60
2018-08-10T03:32:56.746Z,15.64
2018-08-10T03:33:56.682Z,15.70
2018-08-10T03:34:56.669Z,15.67
2018-08-10T03:35:56.659Z,15.61
2018-08-10T03:36:56.646Z,15.56
2018-08-10T03:37:56.624Z,15.52
2018-08-10T03:38:56.598Z,15.66
2018-08-10T03:39:56.576Z,15.61
2018-08-10T03:40:56.573Z,15.63
2018-08-10T03:41:56.548Z,15.64
2018-08-10T03:42:56.542Z,15.61
2018-08-10T03:43:56.529Z,15.56
2018-08-10T03:44:56.503Z,15.54
2018-08-10T03:45:56.493Z,15.45
2018-08-10T03:46:56.477Z,15.43
2018-08-10T03:47:56.461Z,15.36
2018-08-10T03:48:56.464Z,15.59
2018-08-10T03:49:56.482Z,15.63
2018-08-10T03:50:56.407Z,15.52
2018-08-10T03:51:56.406Z,15.46
2018-08-10T03:52:56.373Z,15.42
2018-08-10T03:53:56.394Z,15.31
2018-08-10T03:54:56.348Z,15.20
2018-08-10T03:55:56.351Z,15.24
2018-08-10T03:56:56.322Z,15.11
2018-08-10T03:57:56.297Z,15.11
2018-08-10T03:58:56.284Z,15.09
2018-08-10T03:59:56.272Z,15.08
2018-08-10T04:00:56.268Z,14.94
2018-08-10T04:01:56.242Z,14.91
2018-08-10T04:02:56.242Z,14.90
2018-08-10T04:03:56.216Z,14.83
2018-08-10T04:04:56.195Z,14.81
2018-08-10T04:05:56.183Z,14.65
2018-08-10T04:06:56.178Z,14.60
2018-08-10T04:07:56.135Z,14.47
2018-08-10T04:08:56.121Z,14.42
2018-08-10T04:09:56.126Z,14.32
2018-08-10T04:10:56.088Z,14.20
2018-08-10T04:11:56.084Z,14.25
2018-08-10T04:12:56.072Z,14.21
2018-08-10T04:13:56.036Z,14.19
2018-08-10T04:14:56.050Z,14.24
2018-08-10T04:15:56.007Z,14.27
2018-08-10T04:16:56.065Z,14.31
2018-08-10T04:17:55.984Z,14.25
2018-08-10T04:18:55.964Z,14.25
2018-08-10T04:19:55.945Z,14.16
2018-08-10T04:20:55.930Z,14.12
2018-08-10T04:21:55.907Z,14.10
2018-08-10T04:22:55.900Z,14.09
2018-08-10T04:23:55.869Z,14.04
2018-08-10T04:24:55.859Z,14.04
2018-08-10T04:25:55.837Z,14.02
2018-08-10T04:26:55.827Z,13.94
2018-08-10T04:27:55.809Z,13.99
2018-08-10T04:28:55.795Z,14.09
2018-08-10T04:29:55.785Z,14.04
2018-08-10T04:30:55.782Z,13.91
2018-08-10T04:31:55.753Z,13.94
2018-08-10T04:32:55.725Z,13.98
2018-08-10T04:33:55.715Z,13.95
2018-08-10T04:34:55.718Z,13.92
2018-08-10T04:35:55.685Z,14.04
2018-08-10T04:36:55.664Z,14.10
2018-08-10T04:37:55.645Z,14.24
2018-08-10T04:38:55.648Z,14.32
2018-08-10T04:39:55.629Z,14.43
2018-08-10T04:40:55.589Z,14.50
2018-08-10T04:41:55.576Z,14.54
2018-08-10T04:42:55.583Z,14.62
2018-08-10T04:43:55.545Z,14.60
2018-08-10T04:44:55.526Z,14.62
2018-08-10T04:45:55.535Z,14.54
2018-08-10T04:46:55.494Z,14.50
2018-08-10T04:47:55.475Z,14.54
2018-08-10T04:48:55.459Z,14.42
2018-08-10T04:49:55.446Z,14.39
2018-08-10T04:50:55.455Z,14.39
2018-08-10T04:51:55.413Z,14.49
2018-08-10T04:52:55.391Z,14.53
2018-08-10T04:53:55.392Z,14.57
2018-08-10T04:54:55.387Z,14.39
2018-08-10T04:55:55.381Z,14.43
2018-08-10T04:56:55.328Z,14.38
2018-08-10T04:57:55.324Z,14.38
2018-08-10T04:58:55.295Z,14.31
2018-08-10T04:59:55.295Z,14.37
2018-08-10T05:00:55.261Z,14.32
2018-08-10T05:01:55.244Z,14.32
2018-08-10T05:02:55.247Z,14.17
2018-08-10T05:03:55.219Z,14.27
2018-08-10T05:04:55.191Z,14.34
2018-08-10T05:05:55.179Z,14.29
2018-08-10T05:06:55.161Z,14.43
2018-08-10T05:07:55.269Z,14.38
2018-08-10T05:08:55.133Z,14.49
2018-08-10T05:09:55.170Z,14.61
2018-08-10T05:10:55.098Z,14.69
2018-08-10T05:11:55.086Z,14.72
2018-08-10T05:12:55.061Z,14.69
2018-08-10T05:13:55.047Z,14.75
2018-08-10T05:14:55.036Z,14.68
2018-08-10T05:15:55.035Z,14.68
2018-08-10T05:16:55.004Z,14.69
2018-08-10T05:17:54.986Z,14.67
2018-08-10T05:18:54.962Z,14.68
2018-08-10T05:19:54.981Z,14.90
2018-08-10T05:20:54.933Z,14.94
2018-08-10T05:21:54.927Z,15.01
2018-08-10T05:22:54.936Z,15.08
2018-08-10T05:23:54.892Z,15.12
2018-08-10T05:24:54.864Z,15.12
2018-08-10T05:25:54.901Z,15.03
2018-08-10T05:26:54.840Z,15.13
2018-08-10T05:27:54.818Z,15.15
2018-08-10T05:28:54.796Z,15.09
2018-08-10T05:29:54.786Z,15.17
2018-08-10T05:30:54.783Z,15.27
2018-08-10T05:31:54.783Z,15.20
2018-08-10T05:32:54.738Z,15.27
2018-08-10T05:33:54.727Z,15.27
2018-08-10T05:34:54.782Z,15.27
2018-08-10T05:35:54.690Z,15.33
2018-08-10T05:36:54.684Z,15.42
2018-08-10T05:37:54.645Z,15.38
2018-08-10T05:38:54.645Z,15.41
2018-08-10T05:39:54.639Z,15.60
2018-08-10T05:40:54.614Z,15.54
2018-08-10T05:41:54.617Z,15.64
2018-08-10T05:42:54.578Z,15.70
2018-08-10T05:43:54.616Z,15.70
2018-08-10T05:44:54.537Z,15.79
2018-08-10T05:45:54.534Z,15.97
2018-08-10T05:46:54.554Z,16.00
2018-08-10T05:47:54.546Z,16.04
2018-08-10T05:48:54.485Z,16.06
2018-08-10T05:49:54.472Z,16.12
2018-08-10T05:50:54.495Z,16.18
2018-08-10T05:51:54.451Z,16.22
2018-08-10T05:52:54.428Z,16.23
2018-08-10T05:53:54.403Z,16.38
2018-08-10T05:54:54.410Z,16.37
2018-08-10T05:55:54.369Z,16.42
2018-08-10T05:56:54.425Z,16.42
2018-08-10T05:57:54.382Z,16.50
2018-08-10T05:58:54.321Z,16.60
2018-08-10T05:59:54.318Z,16.85
2018-08-10T06:00:54.296Z,16.92
2018-08-10T06:01:54.289Z,17.08
2018-08-10T06:02:54.308Z,17.07
2018-08-10T06:03:54.393Z,17.10
2018-08-10T06:04:54.244Z,17.25
2018-08-10T06:05:54.215Z,17.18
2018-08-10T06:06:54.218Z,17.30
2018-08-10T06:07:54.194Z,17.48
2018-08-10T06:08:54.171Z,17.48
2018-08-10T06:09:54.175Z,17.59
2018-08-10T06:10:54.145Z,17.59
2018-08-10T06:11:54.127Z,17.79
2018-08-10T06:12:54.111Z,17.76
2018-08-10T06:13:54.089Z,17.85
2018-08-10T06:14:54.104Z,17.87
2018-08-10T06:15:54.066Z,18.03
2018-08-10T06:16:54.047Z,18.21
2018-08-10T06:17:54.063Z,18.42
2018-08-10T06:18:54.027Z,18.54
2018-08-10T06:19:54.028Z,18.54
2018-08-10T06:20:53.988Z,18.46
2018-08-10T06:21:53.978Z,18.54
2018-08-10T06:22:54.000Z,18.49
2018-08-10T06:23:53.985Z,18.49
2018-08-10T06:24:53.984Z,18.46
2018-08-10T06:25:53.924Z,18.43
2018-08-10T06:26:53.927Z,18.54
2018-08-10T06:27:53.919Z,18.42
2018-08-10T06:28:53.883Z,18.42
2018-08-10T06:29:53.886Z,18.57
2018-08-10T06:30:53.844Z,18.52
2018-08-10T06:31:53.867Z,18.62
2018-08-10T06:32:53.820Z,18.57
2018-08-10T06:33:53.880Z,18.54
2018-08-10T06:34:53.815Z,18.52
2018-08-10T06:35:53.781Z,18.37
2018-08-10T06:36:53.772Z,18.28
2018-08-10T06:37:53.773Z,18.22
2018-08-10T06:38:53.743Z,18.25
2018-08-10T06:39:53.813Z,18.15
2018-08-10T06:40:53.708Z,18.12
2018-08-10T06:41:53.727Z,18.24
2018-08-10T06:42:53.676Z,18.21
2018-08-10T06:43:53.666Z,18.17
2018-08-10T06:44:53.661Z,18.25
2018-08-10T06:45:53.637Z,18.24
2018-08-10T06:46:53.615Z,18.21
2018-08-10T06:47:53.605Z,18.24
2018-08-10T06:48:53.612Z,18.24
2018-08-10T06:49:53.582Z,18.19
2018-08-10T06:50:53.585Z,18.28
2018-08-10T06:51:53.550Z,18.33
2018-08-10T06:52:53.534Z,18.33
2018-08-10T06:53:53.557Z,18.29
2018-08-10T06:54:53.506Z,18.36
2018-08-10T06:55:53.564Z,18.36
2018-08-10T06:56:53.478Z,18.39
2018-08-10T06:57:53.495Z,18.40
2018-08-10T06:58:53.504Z,18.27
2018-08-10T06:59:53.573Z,18.19
2018-08-10T07:00:53.440Z,18.31
2018-08-10T07:01:53.409Z,18.49
2018-08-10T07:02:53.397Z,18.58
2018-08-10T07:03:53.425Z,18.59
2018-08-10T07:04:53.370Z,18.65
2018-08-10T07:05:53.358Z,18.57
2018-08-10T07:06:53.341Z,18.49
2018-08-10T07:07:53.415Z,18.65
2018-08-10T07:08:53.309Z,18.70
2018-08-10T07:09:53.309Z,18.72
2018-08-10T07:10:53.288Z,18.73
2018-08-10T07:11:53.274Z,18.83
2018-08-10T07:12:53.285Z,18.83
2018-08-10T07:13:53.251Z,18.92
2018-08-10T07:14:53.227Z,19.08
2018-08-10T07:15:53.217Z,19.10
2018-08-10T07:16:53.239Z,19.17
2018-08-10T07:17:53.192Z,19.25
2018-08-10T07:18:53.181Z,19.24
2018-08-10T07:19:53.187Z,19.29
2018-08-10T07:20:53.154Z,19.20
2018-08-10T07:21:53.147Z,18.97
2018-08-10T07:22:53.133Z,18.64
2018-08-10T07:23:53.111Z,18.47
2018-08-10T07:24:53.101Z,18.40
2018-08-10T07:25:53.089Z,18.33
2018-08-10T07:26:53.101Z,18.34
2018-08-10T07:27:53.084Z,18.54
2018-08-10T07:28:53.059Z,18.67
2018-08-10T07:29:53.034Z,18.95
2018-08-10T07:30:53.022Z,19.18
2018-08-10T07:31:53.012Z,19.38
2018-08-10T07:32:53.019Z,19.68
2018-08-10T07:33:52.983Z,19.95
2018-08-10T07:34:52.973Z,20.02
2018-08-10T07:35:52.965Z,19.65
2018-08-10T07:36:52.947Z,19.39
2018-08-10T07:37:52.941Z,19.57
2018-08-10T07:38:52.929Z,20.08
2018-08-10T07:39:52.906Z,20.10
2018-08-10T07:40:52.904Z,20.56
2018-08-10T07:41:52.887Z,21.08
2018-08-10T07:42:52.873Z,21.38
2018-08-10T07:43:52.864Z,21.69
2018-08-10T07:44:52.851Z,21.98
2018-08-10T07:45:52.842Z,22.10
2018-08-10T07:46:52.836Z,22.38
2018-08-10T07:47:52.811Z,22.29
2018-08-10T07:48:52.805Z,22.49
2018-08-10T07:49:52.804Z,22.90
2018-08-10T07:50:52.803Z,23.09
2018-08-10T07:51:52.768Z,22.94
2018-08-10T07:52:52.771Z,23.08
2018-08-10T07:53:52.745Z,23.07
2018-08-10T07:54:52.735Z,23.14
2018-08-10T07:55:52.731Z,23.60
2018-08-10T07:56:52.707Z,23.53
2018-08-10T07:57:52.704Z,23.32
2018-08-10T07:58:52.695Z,23.23
2018-08-10T07:59:52.685Z,23.08
2018-08-10T08:00:52.688Z,22.94
2018-08-10T08:01:52.697Z,23.01
2018-08-10T08:02:52.645Z,22.99
2018-08-10T08:03:52.639Z,23.01
2018-08-10T08:04:52.624Z,23.19
2018-08-10T08:05:52.624Z,23.29
2018-08-10T08:06:52.656Z,23.47
2018-08-10T08:07:52.613Z,23.50
2018-08-10T08:08:52.607Z,23.65
2018-08-10T08:09:52.594Z,23.68
2018-08-10T08:10:52.573Z,23.75
2018-08-10T08:11:52.573Z,23.67
2018-08-10T08:12:52.592Z,23.64
2018-08-10T08:13:52.560Z,23.60
2018-08-10T08:14:52.551Z,23.35
2018-08-10T08:15:52.544Z,23.07
2018-08-10T08:16:52.539Z,23.09
2018-08-10T08:17:52.549Z,23.35
2018-08-10T08:18:52.519Z,23.67
2018-08-10T08:19:52.593Z,23.52
2018-08-10T08:20:52.500Z,23.20
2018-08-10T08:21:53.214Z,23.34
2018-08-10T08:22:52.483Z,23.60
2018-08-10T08:23:52.475Z,23.80
2018-08-10T08:24:52.461Z,24.05
2018-08-10T08:25:52.458Z,24.05
2018-08-10T08:26:52.458Z,24.23
2018-08-10T08:27:52.467Z,24.23
2018-08-10T08:28:52.433Z,24.22
2018-08-10T08:29:52.426Z,24.12
2018-08-10T08:30:52.426Z,24.23
2018-08-10T08:31:52.454Z,24.10
2018-08-10T08:32:52.410Z,24.12
2018-08-10T08:33:52.409Z,24.02
2018-08-10T08:34:52.550Z,24.01
2018-08-10T08:35:52.382Z,23.82
2018-08-10T08:36:52.432Z,23.60
2018-08-10T08:37:52.388Z,23.32
2018-08-10T08:38:52.359Z,23.38
2018-08-10T08:39:52.350Z,23.49
2018-08-10T08:40:52.375Z,23.97
2018-08-10T08:41:52.337Z,24.22
2018-08-10T08:42:52.337Z,24.49
2018-08-10T08:43:52.324Z,24.60
2018-08-10T08:44:52.321Z,24.57
2018-08-10T08:45:52.502Z,24.26
2018-08-10T08:46:52.305Z,24.17
2018-08-10T08:47:52.299Z,24.14
2018-08-10T08:48:52.289Z,24.05
2018-08-10T08:49:52.320Z,23.98
2018-08-10T08:50:52.266Z,24.13
2018-08-10T08:51:52.323Z,24.26
2018-08-10T08:52:52.257Z,24.67
2018-08-10T08:53:52.283Z,24.63
2018-08-10T08:54:52.260Z,24.87
2018-08-10T08:55:52.244Z,24.98
2018-08-10T08:56:52.231Z,25.27
2018-08-10T08:57:52.222Z,25.24
2018-08-10T08:58:52.228Z,25.20
2018-08-10T08:59:52.214Z,25.01
2018-08-10T09:00:52.209Z,24.77
2018-08-10T09:01:52.212Z,25.16
2018-08-10T09:02:52.218Z,24.61
2018-08-10T09:03:52.212Z,24.19
2018-08-10T09:04:52.181Z,23.75
2018-08-10T09:05:52.170Z,23.43
2018-08-10T09:06:52.169Z,23.20
2018-08-10T09:07:52.175Z,23.62
2018-08-10T09:08:52.165Z,23.97
2018-08-10T09:09:52.149Z,24.27
2018-08-10T09:10:52.152Z,23.82
2018-08-10T09:11:52.130Z,23.68
2018-08-10T09:12:52.139Z,23.94
2018-08-10T09:13:52.126Z,23.80
2018-08-10T09:14:52.107Z,23.58
2018-08-10T09:15:52.133Z,23.19
2018-08-10T09:16:52.104Z,23.01
2018-08-10T09:17:52.097Z,23.79
2018-08-10T09:18:52.084Z,23.92
2018-08-10T09:19:52.077Z,23.97
2018-08-10T09:20:52.081Z,24.23
2018-08-10T09:21:52.069Z,24.63
2018-08-10T09:22:52.065Z,25.00
2018-08-10T09:23:52.074Z,25.32
2018-08-10T09:24:52.049Z,24.64
2018-08-10T09:25:52.052Z,24.22
2018-08-10T09:26:52.104Z,23.83
2018-08-10T09:27:52.033Z,23.20
2018-08-10T09:28:52.017Z,23.71
2018-08-10T09:29:52.031Z,23.72
2018-08-10T09:30:51.998Z,23.64
2018-08-10T09:31:51.998Z,23.52
2018-08-10T09:32:51.990Z,23.57
2018-08-10T09:33:52.010Z,23.17
2018-08-10T09:34:51.977Z,22.83
2018-08-10T09:35:51.974Z,22.54
2018-08-10T09:36:51.967Z,22.47
2018-08-10T09:37:51.951Z,22.50
2018-08-10T09:38:51.949Z,23.04
2018-08-10T09:39:51.937Z,23.68
2018-08-10T09:40:51.930Z,23.80
2018-08-10T09:41:51.919Z,23.32
2018-08-10T09:42:51.919Z,22.83
2018-08-10T09:43:51.916Z,22.78
2018-08-10T09:44:51.894Z,23.23
2018-08-10T09:45:51.897Z,23.64
2018-08-10T09:46:51.881Z,24.13
2018-08-10T09:47:51.890Z,24.22
2018-08-10T09:48:51.868Z,24.24
2018-08-10T09:49:51.855Z,24.49
2018-08-10T09:50:51.849Z,24.29
2018-08-10T09:51:51.866Z,24.41
2018-08-10T09:52:51.840Z,24.44
2018-08-10T09:53:51.839Z,23.89
2018-08-10T09:54:51.817Z,23.20
2018-08-10T09:55:51.817Z,22.60
2018-08-10T09:56:51.802Z,22.44
2018-08-10T09:57:51.830Z,22.84
2018-08-10T09:58:51.795Z,23.52
2018-08-10T09:59:51.863Z,23.71
2018-08-10T10:00:51.773Z,24.20
2018-08-10T10:01:51.769Z,24.71
2018-08-10T10:02:51.757Z,25.20
2018-08-10T10:03:51.753Z,25.06
2018-08-10T10:04:51.747Z,24.76
2018-08-10T10:05:52.256Z,24.17
2018-08-10T10:06:51.724Z,23.85
2018-08-10T10:07:51.725Z,23.34
2018-08-10T10:08:51.734Z,23.02
2018-08-10T10:09:51.712Z,23.17
2018-08-10T10:10:51.711Z,23.50
2018-08-10T10:11:51.702Z,23.97
2018-08-10T10:12:51.695Z,24.07
2018-08-10T10:13:51.679Z,24.07
2018-08-10T10:14:51.680Z,24.01
2018-08-10T10:15:51.667Z,24.16
2018-08-10T10:16:51.661Z,24.39
2018-08-10T10:17:51.654Z,24.41
2018-08-10T10:18:51.648Z,24.67
2018-08-10T10:19:51.641Z,24.87
2018-08-10T10:20:51.640Z,25.06
2018-08-10T10:21:51.628Z,25.32
2018-08-10T10:22:51.626Z,25.65
2018-08-10T10:23:51.622Z,25.75
2018-08-10T10:24:51.616Z,25.67
2018-08-10T10:25:51.616Z,25.57
2018-08-10T10:26:51.609Z,25.53
2018-08-10T10:27:51.596Z,25.05
2018-08-10T10:28:51.592Z,24.57
2018-08-10T10:29:51.586Z,24.34
2018-08-10T10:30:51.579Z,24.08
2018-08-10T10:31:51.586Z,23.97
2018-08-10T10:32:51.573Z,23.76
2018-08-10T10:33:51.564Z,23.95
2018-08-10T10:34:51.560Z,23.97
2018-08-10T10:35:51.560Z,24.13
2018-08-10T10:36:51.547Z,23.97
2018-08-10T10:37:51.554Z,23.85
2018-08-10T10:38:51.540Z,23.71
2018-08-10T10:39:51.532Z,23.50
2018-08-10T10:40:51.532Z,23.34
2018-08-10T10:41:51.522Z,23.11
2018-08-10T10:42:51.520Z,22.99
2018-08-10T10:43:51.509Z,22.89
2018-08-10T10:44:51.503Z,22.94
2018-08-10T10:45:51.496Z,22.92
2018-08-10T10:46:51.490Z,22.87
2018-08-10T10:47:51.484Z,22.97
2018-08-10T10:48:51.474Z,23.09
2018-08-10T10:49:51.468Z,23.52
2018-08-10T10:50:51.477Z,23.35
2018-08-10T10:51:51.458Z,23.26
2018-08-10T10:52:51.452Z,23.47
2018-08-10T10:53:51.440Z,23.83
2018-08-10T10:54:51.443Z,23.90
2018-08-10T10:55:51.432Z,24.10
2018-08-10T10:56:51.486Z,24.23
2018-08-10T10:57:51.424Z,23.87
2018-08-10T10:58:51.411Z,23.83
2018-08-10T10:59:51.401Z,24.27
2018-08-10T11:00:51.397Z,24.80
2018-08-10T11:01:51.397Z,25.32
2018-08-10T11:02:51.392Z,25.22
2018-08-10T11:03:51.393Z,24.98
2018-08-10T11:04:51.385Z,24.79
2018-08-10T11:05:51.370Z,24.47
2018-08-10T11:06:51.373Z,24.12
2018-08-10T11:07:51.363Z,23.80
2018-08-10T11:08:51.357Z,24.04
2018-08-10T11:09:51.351Z,24.52
2018-08-10T11:10:51.348Z,24.64
2018-08-10T11:11:51.348Z,24.91
2018-08-10T11:12:51.338Z,25.07
2018-08-10T11:13:51.344Z,25.09
2018-08-10T11:14:51.331Z,25.06
2018-08-10T11:15:51.328Z,25.07
2018-08-10T11:16:51.331Z,25.00
2018-08-10T11:17:51.325Z,25.01
2018-08-10T11:18:51.322Z,24.95
2018-08-10T11:19:51.316Z,25.27
2018-08-10T11:20:51.309Z,25.34
2018-08-10T11:21:51.309Z,25.57
2018-08-10T11:22:51.307Z,25.61
2018-08-10T11:23:51.320Z,25.67
2018-08-10T11:24:51.303Z,25.05
2018-08-10T11:25:51.404Z,24.63
2018-08-10T11:26:51.300Z,24.67
2018-08-10T11:27:51.296Z,24.41
2018-08-10T11:28:51.293Z,24.07
2018-08-10T11:29:51.293Z,23.97
2018-08-10T11:30:51.289Z,24.52
2018-08-10T11:31:51.299Z,24.24
2018-08-10T11:32:51.280Z,24.45
2018-08-10T11:33:51.277Z,23.79
2018-08-10T11:34:51.274Z,23.53
2018-08-10T11:35:51.270Z,23.09
2018-08-10T11:36:51.267Z,22.97
2018-08-10T11:37:51.267Z,23.08
2018-08-10T11:38:51.258Z,23.75
2018-08-10T11:39:51.255Z,24.50
2018-08-10T11:40:51.257Z,24.71
2018-08-10T11:41:51.242Z,24.47
2018-08-10T11:42:51.238Z,24.95
2018-08-10T11:43:51.235Z,25.22
2018-08-10T11:44:51.279Z,25.61
2018-08-10T11:45:51.223Z,25.80
2018-08-10T11:46:51.226Z,26.05
2018-08-10T11:47:51.223Z,26.62
2018-08-10T11:48:51.232Z,26.74
2018-08-10T11:49:51.216Z,26.99
2018-08-10T11:50:51.221Z,27.20
2018-08-10T11:51:51.213Z,27.26
2018-08-10T11:52:51.226Z,27.33
2018-08-10T11:53:51.210Z,27.02
2018-08-10T11:54:51.216Z,26.94
2018-08-10T11:55:51.217Z,26.96
2018-08-10T11:56:51.216Z,26.29
2018-08-10T11:57:51.217Z,25.34
2018-08-10T11:58:51.215Z,25.01
2018-08-10T11:59:51.255Z,24.49
2018-08-10T12:00:51.217Z,25.13
2018-08-10T12:01:51.245Z,25.79
2018-08-10T12:02:51.230Z,26.31
2018-08-10T12:03:51.210Z,25.50
2018-08-10T12:04:51.207Z,25.72
2018-08-10T12:05:51.235Z,26.08
2018-08-10T12:06:51.210Z,26.40
2018-08-10T12:07:51.367Z,26.54
2018-08-10T12:08:51.207Z,26.35
2018-08-10T12:09:51.223Z,26.55
2018-08-10T12:10:51.204Z,26.92
2018-08-10T12:11:51.204Z,27.33
2018-08-10T12:12:51.240Z,27.57
2018-08-10T12:13:51.207Z,27.88
2018-08-10T12:14:51.213Z,28.09
2018-08-10T12:15:51.213Z,27.05
2018-08-10T12:16:51.203Z,26.87
2018-08-10T12:17:51.207Z,27.28
2018-08-10T12:18:51.215Z,27.43
2018-08-10T12:19:51.211Z,27.51
2018-08-10T12:20:51.250Z,27.53
2018-08-10T12:21:51.210Z,27.61
2018-08-10T12:22:51.213Z,27.88
2018-08-10T12:23:51.213Z,27.80
2018-08-10T12:24:51.328Z,27.98
2018-08-10T12:25:51.216Z,27.82
2018-08-10T12:26:51.219Z,27.11
2018-08-10T12:27:51.219Z,26.42
2018-08-10T12:28:51.219Z,25.82
2018-08-10T12:29:51.222Z,25.25
2018-08-10T12:30:51.223Z,24.97
2018-08-10T12:31:51.223Z,24.87
2018-08-10T12:32:51.223Z,25.54
2018-08-10T12:33:51.222Z,26.55
2018-08-10T12:34:51.223Z,27.26
2018-08-10T12:35:51.252Z,26.52
2018-08-10T12:36:51.213Z,26.09
2018-08-10T12:37:51.220Z,26.01
2018-08-10T12:38:51.210Z,25.74
2018-08-10T12:39:51.217Z,25.16
2018-08-10T12:40:51.210Z,24.82
2018-08-10T12:41:51.203Z,24.67
2018-08-10T12:42:51.204Z,24.71
2018-08-10T12:43:51.199Z,24.76
2018-08-10T12:44:51.193Z,24.61
2018-08-10T12:45:51.197Z,24.56
2018-08-10T12:46:51.183Z,24.49
2018-08-10T12:47:51.340Z,24.41
2018-08-10T12:48:51.180Z,24.27
2018-08-10T12:49:51.174Z,24.42
2018-08-10T12:50:51.170Z,24.34
2018-08-10T12:51:51.164Z,24.35
2018-08-10T12:52:51.161Z,24.59